Time;durP1;ratioP1;P1;durP2;ratioP2;P2;SDS_P1;SDS_P2;PMS_P1;PMS_P2;Temp;Humidity;BMP_temperature;BMP_pressure;BME280_temperature;BME280_humidity;BME280_pressure;Samples;Min_cycle;Max_cycle;Signal;HPM_P1;HPM_P2
2024/05/01 00:01:28;;;;;;;8.00;4.30;;;16.40;99.90;;;;;;6531571;21;20228;-76
2024/05/01 00:03:54;;;;;;;8.00;4.30;;;16.40;99.90;;;;;;6531564;22;20216;-76
2024/05/01 00:06:22;;;;;;;5.10;3.93;;;16.40;99.90;;;;;;6531364;22;20216;-76
2024/05/01 00:08:48;;;;;;;6.80;4.30;;;16.40;99.90;;;;;;6486573;22;20266;-76
2024/05/01 00:11:19;;;;;;;11.07;5.00;;;16.40;99.90;;;;;;6485708;22;20228;-78
2024/05/01 00:13:45;;;;;;;6.40;4.67;;;16.40;99.90;;;;;;6486637;22;20271;-76
2024/05/01 00:16:14;;;;;;;10.77;4.60;;;16.30;99.90;;;;;;6531647;22;20280;-77
2024/05/01 00:18:40;;;;;;;8.00;4.47;;;16.30;99.90;;;;;;6531604;22;20220;-76
2024/05/01 00:21:09;;;;;;;8.60;4.53;;;16.30;99.90;;;;;;6531564;22;20220;-77
2024/05/01 00:23:38;;;;;;;7.33;4.67;;;16.30;99.90;;;;;;6531047;22;20216;-77
2024/05/01 00:26:04;;;;;;;6.90;4.90;;;16.20;99.90;;;;;;6486382;22;20270;-76
2024/05/01 00:28:35;;;;;;;5.13;4.40;;;16.10;99.90;;;;;;6531069;22;20220;-76
2024/05/01 00:31:01;;;;;;;7.90;4.77;;;16.10;99.90;;;;;;6486226;22;20227;-76
2024/05/01 00:33:29;;;;;;;8.87;4.60;;;16.10;99.90;;;;;;6531411;22;20220;-76
2024/05/01 00:35:55;;;;;;;8.60;4.30;;;16.10;99.90;;;;;;6531139;22;20266;-76
2024/05/01 00:38:23;;;;;;;9.80;4.50;;;16.10;99.90;;;;;;6485985;22;20240;-76
2024/05/01 00:40:49;;;;;;;4.53;3.90;;;16.20;99.90;;;;;;6531126;22;20219;-75
2024/05/01 00:43:18;;;;;;;4.27;3.83;;;16.20;99.90;;;;;;6531064;22;20268;-76
2024/05/01 00:45:46;;;;;;;4.47;3.57;;;16.10;99.90;;;;;;6530678;22;20322;-76
2024/05/01 00:48:15;;;;;;;9.07;4.30;;;16.00;99.90;;;;;;6486246;22;20227;-75
2024/05/01 00:50:42;;;;;;;7.43;4.70;;;16.10;99.90;;;;;;6486000;22;20228;-75
2024/05/01 00:53:13;;;;;;;6.27;4.60;;;16.20;99.90;;;;;;6531088;22;20287;-76
2024/05/01 00:55:40;;;;;;;5.03;4.10;;;15.90;99.90;;;;;;6485859;22;20310;-76
2024/05/01 00:58:09;;;;;;;6.90;4.83;;;15.70;99.90;;;;;;6486029;22;20228;-76
2024/05/01 01:00:36;;;;;;;8.40;4.40;;;15.40;99.90;;;;;;6514724;21;20243;-76
2024/05/01 01:03:10;;;;;;;6.73;4.87;;;15.30;99.90;;;;;;6583074;21;20220;-76
2024/05/01 01:05:36;;;;;;;6.47;4.03;;;15.50;99.90;;;;;;6583100;21;20218;-76
2024/05/01 01:08:08;;;;;;;10.03;4.40;;;15.40;99.90;;;;;;6580555;21;20230;-76
2024/05/01 01:10:34;;;;;;;5.83;4.33;;;15.30;99.90;;;;;;6583255;21;20215;-76
2024/05/01 01:13:03;;;;;;;4.47;4.07;;;15.20;99.90;;;;;;6581126;21;20267;-76
2024/05/01 01:15:29;;;;;;;5.53;4.03;;;15.10;99.90;;;;;;6581212;21;20246;-76
2024/05/01 01:17:58;;;;;;;5.17;4.23;;;15.10;99.90;;;;;;6581097;21;20289;-76
2024/05/01 01:20:26;;;;;;;4.73;4.33;;;15.10;99.90;;;;;;6582905;21;20265;-76
2024/05/01 01:22:57;;;;;;;6.17;4.60;;;15.10;99.90;;;;;;6581114;21;20231;-76
2024/05/01 01:25:23;;;;;;;7.73;4.43;;;15.10;99.90;;;;;;6583018;21;20254;-76
2024/05/01 01:27:52;;;;;;;6.80;4.50;;;15.10;99.90;;;;;;6583215;21;20223;-75
2024/05/01 01:30:17;;;;;;;4.37;3.97;;;15.10;99.90;;;;;;6583125;21;20219;-76
2024/05/01 01:32:46;;;;;;;5.63;4.20;;;14.90;99.90;;;;;;6582708;21;20265;-76
2024/05/01 01:35:12;;;;;;;7.40;4.60;;;14.90;99.90;;;;;;6582777;21;20215;-76
2024/05/01 01:37:40;;;;;;;8.97;4.87;;;14.80;99.90;;;;;;6580562;21;20223;-79
2024/05/01 01:40:09;;;;;;;7.00;4.47;;;14.80;99.90;;;;;;6582951;21;20215;-79
2024/05/01 01:42:38;;;;;;;7.80;4.20;;;14.70;99.90;;;;;;6580738;21;20258;-79
2024/05/01 01:45:05;;;;;;;8.00;4.80;;;14.60;99.90;;;;;;6582675;21;20223;-80
2024/05/01 01:47:33;;;;;;;7.10;4.53;;;14.60;99.90;;;;;;6580446;21;20223;-79
2024/05/01 01:49:59;;;;;;;6.17;4.30;;;14.60;99.90;;;;;;6582448;21;20311;-79
2024/05/01 01:52:28;;;;;;;9.03;4.97;;;14.80;99.90;;;;;;6582674;21;20219;-79
2024/05/01 01:54:53;;;;;;;6.43;5.00;;;14.90;99.90;;;;;;6580522;21;20229;-79
2024/05/01 01:57:25;;;;;;;7.67;5.30;;;14.90;99.90;;;;;;6580447;21;20261;-79
2024/05/01 01:59:51;;;;;;;5.73;5.23;;;14.80;99.90;;;;;;6580000;21;20262;-79
2024/05/01 02:02:20;;;;;;;7.23;5.60;;;14.80;99.90;;;;;;6530291;22;20220;-79
2024/05/01 02:04:46;;;;;;;6.57;5.33;;;14.50;99.90;;;;;;6485303;22;20232;-79
2024/05/01 02:07:15;;;;;;;8.87;5.53;;;14.50;99.90;;;;;;6530075;22;20216;-79
2024/05/01 02:09:41;;;;;;;6.70;5.07;;;14.40;99.90;;;;;;6530466;22;20330;-79
2024/05/01 02:12:09;;;;;;;6.63;5.93;;;14.30;99.90;;;;;;6530636;22;20228;-79
2024/05/01 02:14:38;;;;;;;9.13;6.00;;;14.10;99.90;;;;;;6485299;22;20251;-79
2024/05/01 02:17:06;;;;;;;6.30;5.57;;;14.10;99.90;;;;;;6530378;22;20216;-79
2024/05/01 02:19:32;;;;;;;6.60;5.90;;;14.10;99.90;;;;;;6485444;22;20232;-79
2024/05/01 02:22:01;;;;;;;8.40;6.30;;;14.30;99.90;;;;;;6529996;22;20270;-79
2024/05/01 02:24:27;;;;;;;6.70;5.97;;;14.40;99.90;;;;;;6530177;22;20263;-79
2024/05/01 02:26:56;;;;;;;7.03;5.93;;;14.30;99.90;;;;;;6484816;22;20262;-79
2024/05/01 02:29:21;;;;;;;8.77;6.20;;;14.10;99.90;;;;;;6484611;22;20223;-76
2024/05/01 02:31:52;;;;;;;7.63;6.33;;;14.10;99.90;;;;;;6530603;22;20219;-76
2024/05/01 02:34:18;;;;;;;6.30;5.70;;;14.00;99.90;;;;;;6530187;22;20216;-76
2024/05/01 02:36:47;;;;;;;7.23;6.00;;;14.00;99.90;;;;;;6530051;22;20215;-76
2024/05/01 02:39:12;;;;;;;8.57;5.90;;;14.00;99.90;;;;;;6530173;22;20220;-76
2024/05/01 02:41:41;;;;;;;7.90;6.07;;;14.00;99.90;;;;;;6529998;22;20216;-76
2024/05/01 02:44:12;;;;;;;9.37;5.67;;;14.10;99.90;;;;;;6485015;22;20232;-76
2024/05/01 02:46:41;;;;;;;7.93;5.83;;;14.00;99.90;;;;;;6529913;22;20219;-76
2024/05/01 02:49:09;;;;;;;7.30;5.77;;;14.00;99.90;;;;;;6529923;22;20266;-76
2024/05/01 02:51:38;;;;;;;6.57;5.93;;;14.00;99.90;;;;;;6530297;22;20224;-76
2024/05/01 02:54:04;;;;;;;6.47;5.80;;;14.00;99.90;;;;;;6485333;22;20239;-77
2024/05/01 02:56:32;;;;;;;8.23;5.77;;;13.90;99.90;;;;;;6529806;22;20265;-76
2024/05/01 02:58:58;;;;;;;6.37;5.77;;;13.50;99.90;;;;;;6485327;22;20224;-76
2024/05/01 03:01:26;;;;;;;7.50;5.80;;;13.60;99.90;;;;;;6529062;21;20272;-76
2024/05/01 03:03:54;;;;;;;9.13;5.60;;;13.60;99.90;;;;;;6484847;22;20224;-76
2024/05/01 03:06:26;;;;;;;6.33;5.30;;;13.60;99.90;;;;;;6485049;22;20231;-76
2024/05/01 03:08:52;;;;;;;6.80;6.10;;;13.70;99.90;;;;;;6485281;22;20251;-76
2024/05/01 03:11:21;;;;;;;7.70;5.10;;;13.80;99.90;;;;;;6530188;22;20220;-76
2024/05/01 03:13:46;;;;;;;7.20;5.30;;;13.90;99.90;;;;;;6529792;22;20238;-76
2024/05/01 03:16:15;;;;;;;8.23;5.50;;;13.90;99.90;;;;;;6529615;22;20216;-76
2024/05/01 03:18:41;;;;;;;6.23;5.63;;;13.90;99.90;;;;;;6529875;22;20223;-76
2024/05/01 03:21:09;;;;;;;8.07;5.90;;;13.90;99.90;;;;;;6529847;22;20271;-76
2024/05/01 03:23:37;;;;;;;11.07;5.67;;;14.00;99.90;;;;;;6529564;22;20352;-76
2024/05/01 03:26:14;;;;;;;6.47;5.87;;;13.90;99.90;;;;;;6529573;22;20216;-76
2024/05/01 03:28:40;;;;;;;8.70;6.40;;;13.80;99.90;;;;;;6529947;22;20266;-76
2024/05/01 03:31:14;;;;;;;6.70;5.90;;;13.80;99.90;;;;;;6485051;22;20231;-76
2024/05/01 03:33:40;;;;;;;7.53;6.67;;;13.70;99.90;;;;;;6484629;22;20329;-77
2024/05/01 03:36:11;;;;;;;14.03;7.17;;;13.60;99.90;;;;;;6484468;22;20228;-76
2024/05/01 03:38:42;;;;;;;8.27;7.00;;;13.50;99.90;;;;;;6529709;22;20216;-77
2024/05/01 03:41:17;;;;;;;7.53;6.30;;;13.50;99.90;;;;;;6529789;22;20216;-76
2024/05/01 03:43:46;;;;;;;7.80;6.93;;;13.40;99.90;;;;;;6484773;22;20227;-76
2024/05/01 03:46:15;;;;;;;9.37;6.73;;;13.40;99.90;;;;;;6529730;22;20224;-76
2024/05/01 03:48:44;;;;;;;7.87;6.63;;;13.50;99.90;;;;;;6529375;22;20216;-76
2024/05/01 03:51:13;;;;;;;8.93;6.83;;;13.60;99.90;;;;;;6529661;22;20330;-76
2024/05/01 03:53:44;;;;;;;7.80;6.47;;;13.60;99.90;;;;;;6484775;22;20224;-76
2024/05/01 03:56:21;;;;;;;11.83;7.00;;;13.60;99.90;;;;;;6484524;22;20244;-76
2024/05/01 03:58:49;;;;;;;6.77;6.17;;;13.50;99.90;;;;;;6484900;22;20232;-76
2024/05/01 04:01:18;;;;;;;7.97;6.90;;;13.40;99.90;;;;;;6541403;21;20294;-76
2024/05/01 04:03:46;;;;;;;7.13;6.27;;;13.40;99.90;;;;;;6581723;21;20253;-76
2024/05/01 04:06:15;;;;;;;7.97;7.20;;;13.30;99.90;;;;;;6579339;21;20231;-76
2024/05/01 04:08:46;;;;;;;12.53;7.87;;;13.20;99.90;;;;;;6581698;21;20211;-76
2024/05/01 04:11:16;;;;;;;7.40;6.30;;;13.30;99.90;;;;;;6581592;21;20313;-76
2024/05/01 04:13:44;;;;;;;7.77;6.60;;;13.20;99.90;;;;;;6582563;21;20218;-76
2024/05/01 04:16:13;;;;;;;6.80;6.20;;;13.10;99.90;;;;;;6583487;21;20219;-76
2024/05/01 04:18:41;;;;;;;7.77;6.70;;;13.10;99.90;;;;;;6583932;21;20271;-75
2024/05/01 04:21:10;;;;;;;7.60;6.17;;;13.10;99.90;;;;;;6581583;21;20260;-76
2024/05/01 04:23:38;;;;;;;6.50;6.00;;;13.30;99.90;;;;;;6583818;21;20218;-76
2024/05/01 04:26:11;;;;;;;6.83;6.13;;;13.50;99.90;;;;;;6583529;21;20269;-76
2024/05/01 04:28:39;;;;;;;11.97;7.30;;;13.50;99.90;;;;;;6583763;21;20215;-76
2024/05/01 04:31:08;;;;;;;8.63;7.73;;;13.60;99.90;;;;;;6583469;21;20215;-77
2024/05/01 04:33:36;;;;;;;8.60;7.70;;;13.50;99.90;;;;;;6583581;21;20266;-76
2024/05/01 04:36:05;;;;;;;8.13;7.20;;;13.60;99.90;;;;;;6583401;21;20214;-76
2024/05/01 04:38:34;;;;;;;7.57;6.90;;;13.70;99.90;;;;;;6581255;21;20230;-76
2024/05/01 04:41:02;;;;;;;8.27;7.20;;;13.70;99.90;;;;;;6581415;21;20226;-76
2024/05/01 04:43:33;;;;;;;9.00;6.83;;;13.80;99.90;;;;;;6581693;21;20230;-76
2024/05/01 04:46:01;;;;;;;8.63;7.73;;;13.80;99.90;;;;;;6583602;21;20215;-76
2024/05/01 04:48:30;;;;;;;8.70;7.70;;;13.70;99.90;;;;;;6583132;21;20215;-76
2024/05/01 04:50:59;;;;;;;9.57;7.50;;;13.80;99.90;;;;;;6583121;21;20214;-76
2024/05/01 04:53:28;;;;;;;8.37;7.50;;;13.80;99.90;;;;;;6581198;21;20321;-76
2024/05/01 04:55:56;;;;;;;9.30;7.60;;;14.00;99.90;;;;;;6581286;21;20246;-76
2024/05/01 04:58:25;;;;;;;8.67;7.70;;;14.30;99.90;;;;;;6581142;21;20226;-76
2024/05/01 05:00:56;;;;;;;7.83;6.83;;;14.30;99.90;;;;;;6556693;21;20235;-76
2024/05/01 05:03:24;;;;;;;8.97;7.80;;;14.20;99.90;;;;;;6486174;22;20228;-76
2024/05/01 05:05:53;;;;;;;9.63;6.77;;;14.20;99.90;;;;;;6531426;22;20216;-76
2024/05/01 05:08:21;;;;;;;9.23;7.27;;;14.20;99.90;;;;;;6530717;22;20258;-76
2024/05/01 05:10:49;;;;;;;8.30;7.07;;;14.40;99.90;;;;;;6485806;22;20240;-76
2024/05/01 05:13:19;;;;;;;11.43;7.33;;;14.30;99.90;;;;;;6486034;22;20232;-76
2024/05/01 05:15:47;;;;;;;8.47;6.90;;;14.40;99.90;;;;;;6485974;22;20235;-76
2024/05/01 05:18:18;;;;;;;7.30;6.53;;;14.50;99.90;;;;;;6531027;22;20263;-76
2024/05/01 05:20:47;;;;;;;8.30;6.60;;;14.50;99.90;;;;;;6531212;22;20224;-76
2024/05/01 05:23:15;;;;;;;11.47;7.67;;;14.90;99.90;;;;;;6530734;22;20216;-76
2024/05/01 05:25:44;;;;;;;8.00;7.27;;;14.80;99.90;;;;;;6485368;22;20239;-76
2024/05/01 05:28:12;;;;;;;8.97;7.53;;;15.00;99.90;;;;;;6530783;22;20267;-76
2024/05/01 05:30:41;;;;;;;9.20;7.00;;;14.80;99.90;;;;;;6485696;22;20259;-76
2024/05/01 05:33:09;;;;;;;6.70;5.77;;;15.00;99.90;;;;;;6530472;22;20263;-76
2024/05/01 05:35:40;;;;;;;6.17;5.57;;;15.10;99.90;;;;;;6530766;22;20267;-76
2024/05/01 05:38:06;;;;;;;7.47;5.37;;;15.30;99.90;;;;;;6530818;22;20224;-76
2024/05/01 05:40:34;;;;;;;5.33;4.83;;;15.40;99.90;;;;;;6530729;22;20220;-76
2024/05/01 05:43:03;;;;;;;6.30;5.30;;;15.60;99.90;;;;;;6485650;22;20231;-76
2024/05/01 05:45:31;;;;;;;7.53;5.00;;;15.70;99.90;;;;;;6485417;22;20232;-76
2024/05/01 05:48:00;;;;;;;5.70;4.67;;;16.00;99.90;;;;;;6530271;22;20231;-76
2024/05/01 05:50:28;;;;;;;5.80;4.73;;;16.00;99.90;;;;;;6530675;22;20216;-76
2024/05/01 05:52:59;;;;;;;7.10;4.70;;;16.10;99.90;;;;;;6485627;22;20234;-76
2024/05/01 05:55:32;;;;;;;8.37;4.20;;;16.30;99.90;;;;;;6530866;22;20243;-76
2024/05/01 05:58:01;;;;;;;5.60;4.40;;;16.40;99.90;;;;;;6530783;22;20279;-76
2024/05/01 06:00:29;;;;;;;7.13;4.47;;;16.40;99.90;;;;;;6530076;21;20279;-76
2024/05/01 06:02:58;;;;;;;6.97;4.80;;;16.30;99.90;;;;;;6485415;22;20252;-77
2024/05/01 06:05:26;;;;;;;8.27;4.33;;;16.60;99.90;;;;;;6530345;22;20220;-76
2024/05/01 06:07:54;;;;;;;6.97;4.37;;;16.80;99.90;;;;;;6530577;22;20216;-76
2024/05/01 06:10:26;;;;;;;6.17;4.67;;;16.90;99.90;;;;;;6530139;22;20230;-76
2024/05/01 06:12:54;;;;;;;7.83;4.43;;;17.00;99.90;;;;;;6530629;22;20262;-76
2024/05/01 06:15:22;;;;;;;8.20;4.20;;;17.20;99.90;;;;;;6530632;22;20216;-76
2024/05/01 06:17:51;;;;;;;8.73;4.63;;;17.50;99.90;;;;;;6485411;22;20232;-76
2024/05/01 06:20:20;;;;;;;4.73;4.27;;;17.60;99.90;;;;;;6529967;22;20224;-76
2024/05/01 06:22:48;;;;;;;7.53;4.43;;;17.70;99.90;;;;;;6530085;22;20279;-76
2024/05/01 06:25:17;;;;;;;6.90;4.27;;;17.90;99.90;;;;;;6485529;22;20232;-76
2024/05/01 06:27:48;;;;;;;10.97;4.73;;;17.80;99.90;;;;;;6530137;22;20216;-76
2024/05/01 06:30:17;;;;;;;7.20;4.20;;;17.90;99.90;;;;;;6530636;22;20343;-76
2024/05/01 06:32:45;;;;;;;6.20;4.20;;;18.00;99.90;;;;;;6530117;22;20216;-76
2024/05/01 06:35:14;;;;;;;5.60;4.40;;;17.90;99.90;;;;;;6485376;22;20224;-76
2024/05/01 06:37:42;;;;;;;6.10;4.07;;;18.30;99.90;;;;;;6529642;22;20216;-76
2024/05/01 06:40:11;;;;;;;5.37;4.50;;;18.30;99.90;;;;;;6529953;22;20348;-76
2024/05/01 06:42:39;;;;;;;4.50;4.03;;;18.60;99.90;;;;;;6530070;22;20267;-76
2024/05/01 06:45:11;;;;;;;6.93;3.73;;;18.80;99.90;;;;;;6530040;22;20216;-76
2024/05/01 06:47:39;;;;;;;7.00;3.77;;;19.30;99.90;;;;;;6484945;22;20231;-77
2024/05/01 06:50:09;;;;;;;3.97;3.57;;;19.80;99.90;;;;;;6529947;22;20219;-77
2024/05/01 06:52:37;;;;;;;6.33;3.77;;;19.70;99.90;;;;;;6485215;22;20254;-76
2024/05/01 06:55:07;;;;;;;8.37;4.00;;;20.00;99.90;;;;;;6529957;22;20275;-77
2024/05/01 06:57:38;;;;;;;6.63;3.83;;;20.30;99.90;;;;;;6530292;22;20216;-77
2024/05/01 07:00:07;;;;;;;5.87;4.17;;;20.00;99.90;;;;;;6530225;21;20244;-77
2024/05/01 07:02:40;;;;;;;6.03;3.97;;;19.90;99.90;;;;;;6529858;22;20222;-77
2024/05/01 07:05:09;;;;;;;4.80;3.50;;;20.10;99.90;;;;;;6485021;22;20236;-77
2024/05/01 07:07:38;;;;;;;4.93;3.50;;;20.50;99.90;;;;;;6529661;22;20386;-76
2024/05/01 07:10:07;;;;;;;5.03;3.40;;;20.90;99.90;;;;;;6529746;22;20247;-76
2024/05/01 07:12:35;;;;;;;4.53;3.60;;;20.90;99.90;;;;;;6529847;22;20257;-76
2024/05/01 07:15:04;;;;;;;5.03;3.23;;;20.70;99.90;;;;;;6484971;22;20232;-76
2024/05/01 07:17:33;;;;;;;6.60;3.80;;;21.10;99.90;;;;;;6529915;22;20216;-76
2024/05/01 07:20:04;;;;;;;6.13;3.53;;;21.00;99.90;;;;;;6530080;22;20216;-76
2024/05/01 07:22:32;;;;;;;5.13;3.87;;;20.70;99.90;;;;;;6484923;22;20232;-76
2024/05/01 07:25:00;;;;;;;7.47;3.40;;;20.70;99.90;;;;;;6484842;22;20270;-76
2024/05/01 07:27:29;;;;;;;7.57;3.30;;;20.80;99.90;;;;;;6484824;22;20228;-76
2024/05/01 07:29:58;;;;;;;4.97;3.50;;;20.60;99.90;;;;;;6529792;22;20292;-76
2024/05/01 07:32:26;;;;;;;10.70;3.93;;;20.70;99.90;;;;;;6484730;22;20228;-76
2024/05/01 07:34:55;;;;;;;5.63;3.40;;;21.10;99.90;;;;;;6484635;22;20224;-76
2024/05/01 07:37:26;;;;;;;5.93;3.20;;;21.30;99.90;;;;;;6529699;22;20216;-77
2024/05/01 07:39:54;;;;;;;6.83;3.30;;;21.70;99.90;;;;;;6529592;22;20220;-76
2024/05/01 07:42:23;;;;;;;7.23;3.60;;;21.40;99.90;;;;;;6484667;22;20262;-76
2024/05/01 07:44:51;;;;;;;7.70;3.67;;;21.40;99.90;;;;;;6529722;22;20216;-76
2024/05/01 07:47:20;;;;;;;3.97;3.20;;;21.60;99.90;;;;;;6529427;22;20216;-76
2024/05/01 07:49:48;;;;;;;4.27;2.93;;;21.70;99.90;;;;;;6486372;22;20246;-76
2024/05/01 07:52:16;;;;;;;4.23;2.70;;;22.30;99.90;;;;;;6531676;22;20216;-77
2024/05/01 07:54:48;;;;;;;6.33;2.50;;;22.90;99.90;;;;;;6531893;22;20216;-77
2024/05/01 07:57:16;;;;;;;4.57;3.10;;;23.30;99.90;;;;;;6531918;22;20232;-76
2024/05/01 07:59:45;;;;;;;5.07;2.87;;;23.00;99.90;;;;;;6531576;22;20212;-77
2024/05/01 08:02:13;;;;;;;5.50;3.00;;;23.00;99.90;;;;;;6531542;22;20217;-76
2024/05/01 08:04:41;;;;;;;5.07;2.90;;;22.50;99.90;;;;;;6486591;22;20250;-76
2024/05/01 08:07:10;;;;;;;3.93;2.93;;;22.40;99.90;;;;;;6531439;22;20216;-76
2024/05/01 08:09:38;;;;;;;7.67;3.10;;;22.90;99.90;;;;;;6486643;22;20231;-76
2024/05/01 08:12:10;;;;;;;5.10;3.00;;;22.70;99.90;;;;;;6531934;22;20216;-76
2024/05/01 08:14:38;;;;;;;6.73;3.13;;;23.30;99.90;;;;;;6531072;22;20220;-77
2024/05/01 08:17:07;;;;;;;6.93;5.83;;;23.10;99.90;;;;;;6486509;22;20270;-76
2024/05/01 08:19:35;;;;;;;5.93;3.17;;;23.20;99.90;;;;;;6486717;22;20224;-76
2024/05/01 08:22:04;;;;;;;4.60;2.50;;;23.20;99.90;;;;;;6531301;22;20227;-77
2024/05/01 08:24:32;;;;;;;7.23;2.47;;;23.40;99.90;;;;;;6531560;22;20263;-77
2024/05/01 08:27:00;;;;;;;5.00;2.73;;;23.60;99.90;;;;;;6531689;22;20267;-77
2024/05/01 08:29:31;;;;;;;5.23;2.90;;;23.90;99.90;;;;;;6531159;22;20216;-77
2024/05/01 08:32:00;;;;;;;3.63;2.60;;;23.90;99.90;;;;;;6530942;22;20216;-77
2024/05/01 08:34:28;;;;;;;4.57;2.70;;;24.50;99.90;;;;;;6486496;22;20279;-77
2024/05/01 08:36:57;;;;;;;5.13;2.43;;;24.40;99.90;;;;;;6486802;22;20227;-78
2024/05/01 08:39:25;;;;;;;5.10;2.73;;;24.90;99.90;;;;;;6531511;22;20216;-78
2024/05/01 08:41:57;;;;;;;8.07;2.70;;;24.80;99.90;;;;;;6485916;22;20258;-78
2024/05/01 08:44:26;;;;;;;4.60;2.50;;;24.90;99.90;;;;;;6486260;22;20232;-78
2024/05/01 08:46:58;;;;;;;11.17;2.43;;;25.60;99.90;;;;;;6486222;22;20263;-78
2024/05/01 08:49:27;;;;;;;6.23;2.50;;;25.80;99.90;;;;;;6531083;22;20267;-78
2024/05/01 08:52:03;;;;;;;5.67;2.47;;;25.70;99.90;;;;;;6486142;22;20251;-78
2024/05/01 08:54:31;;;;;;;4.43;2.23;;;25.60;99.90;;;;;;6486288;22;20231;-78
2024/05/01 08:57:02;;;;;;;8.17;2.80;;;25.40;99.90;;;;;;6486263;22;20243;-78
2024/05/01 08:59:31;;;;;;;7.10;2.77;;;25.50;99.90;;;;;;6485490;22;20259;-78
2024/05/01 09:02:02;;;;;;;4.03;2.30;;;25.70;99.90;;;;;;6571742;21;20242;-79
2024/05/01 09:04:32;;;;;;;3.43;2.53;;;26.20;99.90;;;;;;6583326;21;20266;-79
2024/05/01 09:07:01;;;;;;;7.70;2.40;;;26.00;99.90;;;;;;6581423;21;20231;-79
2024/05/01 09:09:31;;;;;;;4.33;2.53;;;26.20;99.90;;;;;;6583184;21;20266;-79
2024/05/01 09:11:59;;;;;;;8.57;2.47;;;27.10;99.90;;;;;;6582999;21;20254;-79
2024/05/01 09:14:32;;;;;;;3.00;2.03;;;26.70;99.90;;;;;;6582656;21;20215;-79
2024/05/01 09:17:03;;;;;;;5.90;2.30;;;27.90;99.90;;;;;;6582840;21;20227;-79
2024/05/01 09:19:38;;;;;;;4.00;2.00;;;28.40;99.90;;;;;;6582992;21;20219;-79
2024/05/01 09:22:17;;;;;;;5.40;2.20;;;28.00;99.90;;;;;;6583128;21;20226;-79
2024/05/01 09:24:46;;;;;;;3.67;2.10;;;27.70;99.90;;;;;;6581128;21;20226;-79
2024/05/01 09:27:15;;;;;;;3.63;2.30;;;28.70;99.90;;;;;;6582509;21;20215;-79
2024/05/01 09:29:43;;;;;;;3.00;2.23;;;29.10;99.90;;;;;;6580778;21;20222;-79
2024/05/01 09:32:14;;;;;;;3.77;2.10;;;28.40;99.90;;;;;;6582972;21;20214;-79
2024/05/01 09:34:43;;;;;;;6.83;2.00;;;29.00;99.90;;;;;;6583140;21;20249;-79
2024/05/01 09:37:17;;;;;;;6.00;2.60;;;29.80;99.90;;;;;;6582853;21;20219;-79
2024/05/01 09:39:50;;;;;;;5.32;3.28;;;30.20;99.90;;;;;;6580805;21;20260;-79
2024/05/01 09:42:25;;;;;;;3.50;2.20;;;30.00;99.90;;;;;;6580946;21;20308;-79
2024/05/01 09:45:00;;;;;;;6.50;2.38;;;30.20;99.90;;;;;;6582808;21;20253;-79
2024/05/01 09:47:31;;;;;;;5.70;2.20;;;29.50;99.90;;;;;;6583190;21;20317;-79
2024/05/01 09:50:01;;;;;;;7.82;2.13;;;30.10;99.90;;;;;;6582525;21;20223;-80
2024/05/01 09:52:30;;;;;;;5.15;2.63;;;30.60;99.90;;;;;;6582691;21;20218;-80
2024/05/01 09:54:59;;;;;;;4.43;2.10;;;30.50;99.90;;;;;;6580298;21;20215;-79
2024/05/01 09:57:28;;;;;;;4.60;2.27;;;29.70;99.90;;;;;;6580634;21;20257;-79
2024/05/01 09:59:57;;;;;;;4.03;2.07;;;28.90;99.90;;;;;;6579218;21;20215;-79
2024/05/01 10:02:32;;;;;;;6.67;2.90;;;29.00;99.90;;;;;;6530286;22;20216;-79
2024/05/01 10:05:06;;;;;;;6.43;2.60;;;30.00;99.90;;;;;;6530345;22;20270;-79
2024/05/01 10:07:47;;;;;;;5.20;2.10;;;30.30;99.90;;;;;;6530178;22;20275;-79
2024/05/01 10:10:16;;;;;;;2.53;2.00;;;30.80;99.40;;;;;;6529947;22;20216;-79
2024/05/01 10:13:03;;;;;;;7.25;2.20;;;31.10;99.60;;;;;;6529932;22;20216;-79
2024/05/01 10:15:35;;;;;;;2.83;2.22;;;30.20;99.40;;;;;;6530282;22;20223;-79
2024/05/01 10:18:09;;;;;;;2.92;1.80;;;30.70;99.90;;;;;;6530294;22;20227;-80
2024/05/01 10:20:50;;;;;;;8.05;2.20;;;31.40;98.50;;;;;;6530195;22;20266;-79
2024/05/01 10:23:21;;;;;;;3.13;2.00;;;30.70;98.40;;;;;;6530238;22;20258;-79
2024/05/01 10:25:50;;;;;;;5.40;2.07;;;29.50;99.00;;;;;;6529883;22;20340;-79
2024/05/01 10:28:20;;;;;;;6.78;2.10;;;30.70;99.10;;;;;;6485138;22;20250;-79
2024/05/01 10:30:49;;;;;;;2.92;1.95;;;31.30;95.90;;;;;;6485241;22;20240;-79
2024/05/01 10:33:31;;;;;;;8.20;2.47;;;31.40;97.00;;;;;;6529879;22;20247;-79
2024/05/01 10:36:06;;;;;;;4.60;2.13;;;31.10;97.50;;;;;;6484950;22;20326;-79
2024/05/01 10:38:36;;;;;;;6.45;2.00;;;30.50;96.20;;;;;;6529983;22;20219;-79
2024/05/01 10:41:05;;;;;;;6.17;2.10;;;30.90;95.70;;;;;;6530170;22;20266;-79
2024/05/01 10:43:34;;;;;;;6.33;2.07;;;30.60;96.30;;;;;;6485053;22;20227;-79
2024/05/01 10:46:00;;;;;;;4.60;2.13;;;30.60;95.30;;;;;;6485098;22;20232;-78
2024/05/01 10:48:33;;;;;;;4.80;1.97;;;30.70;96.80;;;;;;6529838;22;20270;-78
2024/05/01 10:51:01;;;;;;;4.87;1.80;;;30.80;95.40;;;;;;6529926;22;20271;-79
2024/05/01 10:53:30;;;;;;;5.37;1.97;;;30.20;95.40;;;;;;6485049;22;20255;-79
2024/05/01 10:55:59;;;;;;;6.97;1.70;;;30.50;95.30;;;;;;6527796;22;20235;-79
2024/05/01 10:58:27;;;;;;;4.87;2.20;;;30.30;94.80;;;;;;6530329;22;20217;-79
2024/05/01 11:00:56;;;;;;;4.30;1.53;;;30.20;94.00;;;;;;6530024;21;20228;-80
2024/05/01 11:03:24;;;;;;;10.63;2.07;;;30.10;93.60;;;;;;6530154;22;20259;-77
2024/05/01 11:05:56;;;;;;;3.47;1.67;;;29.80;96.10;;;;;;6529695;22;20362;-77
2024/05/01 11:08:23;;;;;;;5.37;1.80;;;29.60;94.80;;;;;;6484527;22;20243;-78
2024/05/01 11:10:53;;;;;;;3.50;1.53;;;29.70;96.30;;;;;;6529781;22;20295;-77
2024/05/01 11:13:25;;;;;;;3.20;1.80;;;29.20;95.90;;;;;;6484734;22;20231;-77
2024/05/01 11:15:54;;;;;;;7.27;2.13;;;29.60;95.80;;;;;;6484957;22;20228;-77
2024/05/01 11:18:23;;;;;;;4.53;2.33;;;29.60;95.00;;;;;;6529987;22;20220;-77
2024/05/01 11:20:53;;;;;;;3.87;1.93;;;29.50;94.20;;;;;;6485097;22;20275;-76
2024/05/01 11:23:28;;;;;;;3.60;1.80;;;29.00;94.00;;;;;;6530312;22;20267;-76
2024/05/01 11:25:59;;;;;;;3.60;1.67;;;29.00;95.00;;;;;;6532027;22;20215;-77
2024/05/01 11:28:28;;;;;;;4.40;2.07;;;29.00;94.60;;;;;;6487086;22;20269;-76
2024/05/01 11:30:59;;;;;;;4.60;1.97;;;29.00;93.50;;;;;;6486701;22;20262;-80
2024/05/01 11:33:28;;;;;;;4.20;2.00;;;29.60;94.50;;;;;;6487122;22;20231;-81
2024/05/01 11:35:57;;;;;;;5.90;2.03;;;30.40;94.90;;;;;;6486743;22;20262;-77
2024/05/01 11:38:28;;;;;;;3.80;1.70;;;30.90;92.00;;;;;;6531724;22;20288;-78
2024/05/01 11:40:57;;;;;;;2.73;1.50;;;31.30;92.70;;;;;;6487041;22;20227;-78
2024/05/01 11:43:25;;;;;;;5.17;1.77;;;31.10;92.80;;;;;;6487335;22;20266;-78
2024/05/01 11:45:54;;;;;;;3.33;1.57;;;30.20;91.30;;;;;;6531607;22;20219;-78
2024/05/01 11:48:22;;;;;;;4.13;1.70;;;29.70;91.90;;;;;;6487029;22;20232;-77
2024/05/01 11:50:51;;;;;;;2.77;1.67;;;28.80;93.10;;;;;;6486809;22;20262;-76
2024/05/01 11:53:19;;;;;;;9.43;2.00;;;28.60;93.70;;;;;;6531802;22;20224;-76
2024/05/01 11:55:51;;;;;;;4.63;2.00;;;28.50;93.60;;;;;;6531917;22;20278;-76
2024/05/01 11:58:19;;;;;;;3.30;1.70;;;28.80;94.20;;;;;;6531679;22;20317;-76
2024/05/01 12:00:48;;;;;;;4.27;1.60;;;28.80;95.40;;;;;;6531481;21;20232;-76
2024/05/01 12:03:42;;;;;;;3.67;1.87;;;28.80;93.60;;;;;;6486384;22;20228;-76
2024/05/01 12:06:11;;;;;;;8.07;1.90;;;29.00;93.40;;;;;;6486777;22;20232;-76
2024/05/01 12:08:40;;;;;;;3.03;1.40;;;28.90;92.80;;;;;;6531893;22;20267;-76
2024/05/01 12:11:11;;;;;;;4.03;2.07;;;28.70;94.20;;;;;;6531456;22;20216;-76
2024/05/01 12:13:40;;;;;;;6.00;1.97;;;28.00;93.60;;;;;;6531578;22;20216;-76
2024/05/01 12:16:08;;;;;;;7.40;1.90;;;28.20;92.80;;;;;;6532053;22;20212;-76
2024/05/01 12:18:37;;;;;;;8.27;1.93;;;28.20;93.40;;;;;;6531818;22;20266;-76
2024/05/01 12:21:07;;;;;;;5.97;1.93;;;27.90;94.10;;;;;;6531583;22;20282;-76
2024/05/01 12:23:36;;;;;;;5.83;1.70;;;28.50;93.50;;;;;;6486540;22;20267;-76
2024/05/01 12:26:12;;;;;;;7.47;1.80;;;28.10;93.40;;;;;;6486579;22;20246;-76
2024/05/01 12:28:41;;;;;;;8.43;2.20;;;28.40;92.60;;;;;;6486489;22;20227;-76
2024/05/01 12:31:17;;;;;;;7.33;1.90;;;28.50;92.70;;;;;;6531418;22;20267;-76
2024/05/01 12:33:46;;;;;;;7.57;1.90;;;27.80;94.40;;;;;;6531653;22;20217;-76
2024/05/01 12:36:13;;;;;;;3.00;1.63;;;27.80;92.10;;;;;;6486163;22;20274;-76
2024/05/01 12:38:42;;;;;;;7.03;2.00;;;28.10;93.90;;;;;;6531347;22;20262;-76
2024/05/01 12:41:14;;;;;;;4.30;1.63;;;27.90;94.20;;;;;;6486209;22;20263;-76
2024/05/01 12:43:48;;;;;;;5.13;1.80;;;28.00;93.00;;;;;;6486312;22;20224;-76
2024/05/01 12:46:24;;;;;;;4.13;1.83;;;28.10;94.50;;;;;;6531306;22;20223;-76
2024/05/01 12:49:12;;;;;;;6.87;2.20;;;27.90;94.20;;;;;;6486111;22;20275;-76
2024/05/01 12:51:43;;;;;;;5.83;2.20;;;27.70;94.90;;;;;;6531409;22;20216;-76
2024/05/01 12:54:43;;;;;;;6.20;1.83;;;27.50;94.50;;;;;;6486282;22;20231;-76
2024/05/01 12:57:14;;;;;;;4.20;1.90;;;27.60;93.50;;;;;;6531473;22;20232;-76